createdAt,value
2023-02-09T00:01:32.697Z,10.27
2023-02-09T00:04:03.264Z,11.20
2023-02-09T00:06:31.339Z,10.60
2023-02-09T00:08:59.312Z,9.52
2023-02-09T00:11:42.787Z,10.13
2023-02-09T00:14:12.525Z,10.52
2023-02-09T00:16:40.457Z,11.65
2023-02-09T00:19:08.698Z,9.63
2023-02-09T00:21:37.280Z,10.80
2023-02-09T00:24:05.824Z,9.52
2023-02-09T00:26:33.843Z,9.38
2023-02-09T00:29:01.800Z,10.45
2023-02-09T00:31:31.108Z,9.90
2023-02-09T00:33:59.400Z,12.90
2023-02-09T00:36:28.709Z,10.68
2023-02-09T00:38:56.724Z,10.95
2023-02-09T00:41:38.485Z,10.57
2023-02-09T00:44:06.515Z,10.68
2023-02-09T00:46:35.687Z,10.05
2023-02-09T00:49:03.338Z,11.32
2023-02-09T00:51:31.009Z,11.40
2023-02-09T00:53:58.649Z,11.45
2023-02-09T00:56:27.275Z,11.90
2023-02-09T00:58:59.699Z,12.27
2023-02-09T01:01:27.405Z,10.73
2023-02-09T01:03:57.370Z,11.13
2023-02-09T01:06:25.696Z,9.40
2023-02-09T01:09:18.961Z,8.90
2023-02-09T01:11:46.808Z,10.20
2023-02-09T01:14:14.426Z,11.15
2023-02-09T01:16:42.086Z,10.20
2023-02-09T01:19:14.673Z,11.48
2023-02-09T01:21:42.726Z,9.07
2023-02-09T01:24:14.865Z,11.02
2023-02-09T01:26:43.544Z,10.25
2023-02-09T01:29:15.145Z,11.55
2023-02-09T01:31:45.844Z,10.38
2023-02-09T01:34:18.142Z,11.25
2023-02-09T01:36:48.540Z,10.95
2023-02-09T01:39:16.704Z,11.30
2023-02-09T01:41:44.918Z,11.95
2023-02-09T01:44:51.149Z,10.02
2023-02-09T01:47:20.504Z,10.45
2023-02-09T01:49:51.783Z,11.30
2023-02-09T01:52:24.294Z,9.43
2023-02-09T01:54:56.682Z,12.98
2023-02-09T01:57:32.137Z,15.55
2023-02-09T02:00:05.677Z,17.80
2023-02-09T02:02:43.665Z,11.48
2023-02-09T02:05:13.056Z,12.23
2023-02-09T02:07:47.813Z,12.43
2023-02-09T02:10:15.926Z,12.52
2023-02-09T02:12:44.098Z,11.38
2023-02-09T02:15:12.320Z,14.88
2023-02-09T02:17:56.770Z,14.77
2023-02-09T02:21:11.433Z,12.52
2023-02-09T02:23:49.279Z,11.20
2023-02-09T02:26:46.459Z,10.32
2023-02-09T02:29:31.754Z,12.95
2023-02-09T02:32:22.953Z,11.60
2023-02-09T02:34:58.271Z,12.00
2023-02-09T02:37:44.666Z,10.93
2023-02-09T02:40:43.994Z,13.63
2023-02-09T02:43:27.656Z,13.27
2023-02-09T02:46:03.638Z,12.50
2023-02-09T02:48:40.671Z,12.15
2023-02-09T02:51:15.652Z,11.15
2023-02-09T02:53:49.659Z,10.23
2023-02-09T02:56:45.777Z,10.65
2023-02-09T02:59:18.304Z,10.40
2023-02-09T03:01:54.477Z,9.90
2023-02-09T03:04:24.837Z,12.98
2023-02-09T03:06:56.781Z,11.30
2023-02-09T03:09:24.579Z,11.63
2023-02-09T03:11:58.679Z,9.63
2023-02-09T03:14:39.760Z,12.57
2023-02-09T03:17:19.759Z,12.00
2023-02-09T03:19:55.276Z,12.25
2023-02-09T03:22:30.670Z,13.18
2023-02-09T03:25:02.726Z,11.95
2023-02-09T03:27:34.802Z,15.13
2023-02-09T03:30:05.189Z,12.30
2023-02-09T03:32:37.802Z,18.13
2023-02-09T05:53:42.855Z,15.00
2023-02-09T05:56:11.666Z,13.70
2023-02-09T05:58:39.767Z,13.07
2023-02-09T06:01:33.676Z,15.50
2023-02-09T06:04:01.772Z,14.75
2023-02-09T06:06:29.411Z,17.35
2023-02-09T06:08:58.596Z,15.18
2023-02-09T06:11:26.776Z,17.17
2023-02-09T06:13:55.268Z,13.45
2023-02-09T06:16:23.192Z,15.65
2023-02-09T06:18:51.253Z,13.73
2023-02-09T06:21:20.208Z,15.35
2023-02-09T06:23:47.887Z,16.67
2023-02-09T06:26:18.753Z,17.02
2023-02-09T06:28:46.782Z,14.00
2023-02-09T06:31:15.799Z,17.90
2023-02-09T06:33:43.517Z,17.70
2023-02-09T06:36:12.204Z,16.70
2023-02-09T06:39:04.692Z,17.15
2023-02-09T06:41:58.656Z,16.83
2023-02-09T06:44:26.331Z,17.67
2023-02-09T06:46:54.211Z,15.32
2023-02-09T06:49:26.451Z,19.35
2023-02-09T06:51:55.317Z,15.10
2023-02-09T06:54:25.669Z,14.50
2023-02-09T06:56:55.510Z,15.40
2023-02-09T06:59:25.693Z,14.43
2023-02-09T07:01:56.866Z,12.73
2023-02-09T07:04:24.682Z,15.68
2023-02-09T07:06:52.751Z,14.75
2023-02-09T07:09:20.697Z,13.73
2023-02-09T07:11:48.671Z,14.57
2023-02-09T07:14:18.479Z,16.02
2023-02-09T07:16:46.252Z,15.63
2023-02-09T07:19:14.133Z,14.93
2023-02-09T07:21:45.692Z,15.15
2023-02-09T07:27:31.066Z,14.82
2023-02-09T07:30:01.297Z,14.88
2023-02-09T07:32:29.440Z,15.32
2023-02-09T07:34:57.179Z,15.02
2023-02-09T07:37:26.788Z,17.33
2023-02-09T07:39:54.429Z,16.50
2023-02-09T07:42:25.779Z,17.77
2023-02-09T07:45:00.280Z,16.23
2023-02-09T07:47:28.217Z,16.33
2023-02-09T07:49:56.112Z,12.95
2023-02-09T07:52:25.679Z,17.58
2023-02-09T07:54:53.489Z,13.80
2023-02-09T07:57:22.656Z,13.13
2023-02-09T07:59:52.252Z,16.90
2023-02-09T08:02:28.713Z,15.98
2023-02-09T08:05:00.861Z,16.17
2023-02-09T08:07:29.603Z,17.15
2023-02-09T08:09:57.284Z,14.45
2023-02-09T08:12:44.657Z,15.13
2023-02-09T08:15:13.763Z,16.20
2023-02-09T08:17:43.782Z,17.33
2023-02-09T08:20:17.703Z,24.13
2023-02-09T08:23:16.752Z,18.70
2023-02-09T08:25:54.655Z,21.15
2023-02-09T08:28:48.467Z,18.33
2023-02-09T08:31:18.998Z,17.77
2023-02-09T08:33:49.673Z,19.40
2023-02-09T08:36:18.720Z,18.00
2023-02-09T08:38:47.989Z,20.88
2023-02-09T08:41:17.034Z,18.73
2023-02-09T08:43:48.954Z,21.20
2023-02-09T08:46:18.831Z,20.38
2023-02-09T08:48:48.149Z,19.80
2023-02-09T08:51:17.580Z,18.67
2023-02-09T08:53:52.295Z,19.60
2023-02-09T08:56:25.690Z,17.75
2023-02-09T08:58:53.346Z,20.08
2023-02-09T09:01:21.701Z,19.13
2023-02-09T09:03:50.765Z,17.55
2023-02-09T09:06:19.734Z,23.73
2023-02-09T09:08:47.389Z,23.48
2023-02-09T09:11:15.669Z,22.02
2023-02-09T09:13:43.382Z,19.30
2023-02-09T09:16:16.058Z,21.17
2023-02-09T09:18:45.374Z,21.48
2023-02-09T09:21:15.944Z,21.90
2023-02-09T09:23:43.787Z,20.75
2023-02-09T09:26:13.792Z,20.08
2023-02-09T09:28:41.521Z,17.55
2023-02-09T09:31:09.903Z,21.55
2023-02-09T09:33:37.816Z,18.58
2023-02-09T09:36:07.301Z,17.15
2023-02-09T09:38:39.829Z,19.77
2023-02-09T09:41:19.733Z,20.45
2023-02-09T09:43:47.700Z,17.98
2023-02-09T09:46:20.845Z,18.45
2023-02-09T09:48:51.651Z,18.48
2023-02-09T09:51:28.715Z,18.45
2023-02-09T09:54:00.318Z,19.88
2023-02-09T09:58:59.861Z,22.88
2023-02-09T10:01:54.707Z,21.35
2023-02-09T10:04:22.713Z,22.33
2023-02-09T10:07:00.679Z,19.42
2023-02-09T10:09:40.442Z,25.45
2023-02-09T10:12:33.393Z,23.08
2023-02-09T10:15:16.582Z,19.73
2023-02-09T10:17:48.263Z,21.23
2023-02-09T10:20:17.774Z,20.38
2023-02-09T10:22:46.246Z,20.50
2023-02-09T10:28:15.333Z,18.55
2023-02-09T10:30:47.973Z,17.60
2023-02-09T10:33:20.426Z,18.08
2023-02-09T10:35:52.047Z,20.17
2023-02-09T10:38:22.432Z,23.35
2023-02-09T10:40:51.544Z,19.55
2023-02-09T10:43:24.947Z,20.33
2023-02-09T10:45:56.594Z,21.42
2023-02-09T10:48:26.547Z,17.70
2023-02-09T10:50:57.519Z,21.73
2023-02-09T10:53:30.427Z,20.33
2023-02-09T10:56:04.537Z,17.98
2023-02-09T11:01:32.919Z,17.33
2023-02-09T11:04:03.566Z,19.02
2023-02-09T11:09:36.486Z,17.73
2023-02-09T11:12:14.453Z,17.33
2023-02-09T11:14:44.452Z,17.00
2023-02-09T11:17:18.484Z,16.95
2023-02-09T11:20:04.514Z,17.15
2023-02-09T11:22:55.430Z,17.15
2023-02-09T11:25:27.531Z,18.48
2023-02-09T11:28:19.570Z,16.13
2023-02-09T11:31:24.524Z,16.45
2023-02-09T11:34:00.332Z,18.08
2023-02-09T11:36:46.936Z,16.15
2023-02-09T11:39:22.421Z,15.43
2023-02-09T11:42:38.062Z,17.55
2023-02-09T11:45:10.288Z,17.52
2023-02-09T11:50:21.617Z,16.88
2023-02-09T11:52:53.640Z,18.98
2023-02-09T11:55:29.240Z,17.05
2023-02-09T11:58:11.509Z,18.38
2023-02-09T12:00:54.810Z,16.00
2023-02-09T12:03:28.426Z,16.05
2023-02-09T12:05:57.187Z,17.05
2023-02-09T12:08:53.783Z,15.50
2023-02-09T12:11:34.347Z,16.60
2023-02-09T12:14:24.641Z,15.50
2023-02-09T12:16:59.892Z,15.48
2023-02-09T12:19:36.449Z,18.15
2023-02-09T12:22:52.530Z,15.73
2023-02-09T12:25:50.242Z,15.23
2023-02-09T12:28:39.752Z,17.67
2023-02-09T12:31:12.519Z,16.30
2023-02-09T12:34:02.518Z,16.90
2023-02-09T12:36:33.425Z,17.98
2023-02-09T12:39:05.498Z,14.93
2023-02-09T12:42:07.449Z,16.02
2023-02-09T12:44:40.077Z,18.03
2023-02-09T12:47:42.662Z,17.23
2023-02-09T12:50:25.423Z,17.38
2023-02-09T12:53:34.814Z,15.60
2023-02-09T12:56:05.439Z,14.77
2023-02-09T12:58:54.148Z,15.55
2023-02-09T13:01:24.745Z,15.38
2023-02-09T13:03:56.945Z,15.98
2023-02-09T13:06:34.343Z,15.43
2023-02-09T13:09:05.964Z,15.50
2023-02-09T13:11:45.431Z,15.57
2023-02-09T13:14:15.819Z,15.45
2023-02-09T13:16:56.463Z,14.90
2023-02-09T13:20:00.881Z,16.77
2023-02-09T13:22:34.336Z,15.57
2023-02-09T13:25:14.689Z,15.18
2023-02-09T13:27:47.890Z,14.30
2023-02-09T13:30:27.470Z,14.68
2023-02-09T13:33:04.427Z,16.33
2023-02-09T13:35:35.520Z,15.20
2023-02-09T13:38:16.634Z,15.97
2023-02-09T13:40:50.641Z,14.80
2023-02-09T13:43:31.518Z,14.32
2023-02-09T13:46:02.656Z,17.50
2023-02-09T13:48:36.576Z,15.02
2023-02-09T13:51:16.475Z,14.63
2023-02-09T13:53:57.204Z,14.85
2023-02-09T13:56:27.034Z,16.77
2023-02-09T13:58:56.436Z,12.73
2023-02-09T14:01:29.483Z,13.02
2023-02-09T14:04:03.991Z,15.45
2023-02-09T14:06:36.729Z,13.95
2023-02-09T14:09:14.257Z,11.48
2023-02-09T14:11:51.172Z,14.27
2023-02-09T14:14:23.421Z,13.38
2023-02-09T14:17:24.392Z,14.13
2023-02-09T14:19:53.877Z,13.95
2023-02-09T14:22:29.917Z,14.18
2023-02-09T14:24:57.856Z,15.18
2023-02-09T14:27:32.817Z,15.10
2023-02-09T14:30:01.254Z,13.48
2023-02-09T14:32:34.532Z,14.73
2023-02-09T14:35:17.479Z,14.98
2023-02-09T14:37:46.555Z,13.20
2023-02-09T14:40:24.314Z,12.18
2023-02-09T14:43:00.540Z,13.40
2023-02-09T14:45:31.474Z,14.57
2023-02-09T14:48:00.522Z,15.57
2023-02-09T14:50:29.119Z,15.55
2023-02-09T14:53:08.890Z,14.60
2023-02-09T14:55:40.400Z,15.00
2023-02-09T14:58:18.991Z,15.80
2023-02-09T15:00:50.913Z,15.88
2023-02-09T15:03:19.598Z,14.55
2023-02-09T15:05:51.047Z,12.70
2023-02-09T15:08:21.894Z,15.70
2023-02-09T15:10:53.306Z,14.60
2023-02-09T15:13:23.320Z,15.20
2023-02-09T15:15:52.567Z,14.40
2023-02-09T15:18:23.418Z,15.15
2023-02-09T15:20:51.536Z,13.52
2023-02-09T15:23:19.338Z,15.35
2023-02-09T15:25:48.665Z,14.57
2023-02-09T15:28:25.475Z,16.10
2023-02-09T15:30:55.483Z,13.65
2023-02-09T15:33:25.656Z,13.55
2023-02-09T15:35:53.794Z,15.55
2023-02-09T15:38:27.082Z,15.10
2023-02-09T15:41:12.428Z,15.63
2023-02-09T15:43:58.025Z,17.27
2023-02-09T15:46:44.814Z,14.02
2023-02-09T15:49:12.593Z,14.15
2023-02-09T15:51:41.633Z,16.00
2023-02-09T15:54:19.258Z,14.65
2023-02-09T15:56:47.407Z,14.05
2023-02-09T15:59:20.142Z,15.60
2023-02-09T16:01:50.595Z,14.57
2023-02-09T16:04:19.590Z,16.35
2023-02-09T16:06:50.495Z,14.07
2023-02-09T16:09:20.470Z,16.65
2023-02-09T16:11:48.339Z,15.40
2023-02-09T16:14:41.971Z,14.77
2023-02-09T16:17:12.460Z,15.15
2023-02-09T16:19:40.715Z,14.30
2023-02-09T16:22:12.540Z,16.27
2023-02-09T16:24:42.715Z,16.83
2023-02-09T16:27:16.563Z,15.60
2023-02-09T16:30:16.589Z,16.95
2023-02-09T16:32:47.525Z,18.20
2023-02-09T16:35:17.311Z,16.38
2023-02-09T16:37:49.793Z,15.40
2023-02-09T16:40:27.648Z,17.20
2023-02-09T16:42:57.530Z,15.63
2023-02-09T16:45:26.738Z,15.95
2023-02-09T16:47:59.125Z,15.38
2023-02-09T16:50:32.870Z,16.48
2023-02-09T16:53:03.587Z,14.68
2023-02-09T16:55:33.436Z,15.50
2023-02-09T16:58:07.426Z,17.40
2023-02-09T17:01:01.629Z,16.58
2023-02-09T17:03:35.433Z,16.67
2023-02-09T17:06:04.239Z,15.38
2023-02-09T17:08:34.715Z,13.70
2023-02-09T17:11:04.429Z,14.32
2023-02-09T17:13:32.439Z,17.40
2023-02-09T17:16:02.428Z,15.30
2023-02-09T17:18:34.598Z,15.65
2023-02-09T17:21:04.782Z,16.67
2023-02-09T17:23:32.997Z,15.63
2023-02-09T17:26:00.624Z,16.25
2023-02-09T17:28:29.792Z,16.33
2023-02-09T17:30:59.818Z,16.48
2023-02-09T17:33:30.830Z,18.08
2023-02-09T17:38:49.065Z,18.48
2023-02-09T17:41:19.515Z,17.30
2023-02-09T17:43:47.776Z,16.42
2023-02-09T17:46:18.715Z,14.55
2023-02-09T17:48:47.152Z,17.77
2023-02-09T17:51:20.896Z,17.73
2023-02-09T17:53:49.103Z,18.92
2023-02-09T17:56:17.000Z,19.92
2023-02-09T17:58:45.273Z,18.63
2023-02-09T18:01:25.291Z,19.20
2023-02-09T18:03:54.431Z,20.00
2023-02-09T18:06:33.375Z,18.85
2023-02-09T18:09:01.544Z,20.17
2023-02-09T18:11:41.483Z,18.98
2023-02-09T18:14:14.540Z,18.15
2023-02-09T18:17:08.802Z,17.38
2023-02-09T18:19:37.535Z,16.80
2023-02-09T18:22:06.973Z,17.33
2023-02-09T18:24:35.711Z,16.75
2023-02-09T18:27:03.929Z,16.58
2023-02-09T18:29:31.645Z,16.95
2023-02-09T18:32:01.403Z,20.15
2023-02-09T18:34:29.847Z,19.27
2023-02-09T18:36:58.546Z,15.02
2023-02-09T18:39:27.570Z,17.10
2023-02-09T18:41:55.463Z,17.25
2023-02-09T18:44:28.336Z,17.00
2023-02-09T18:46:56.190Z,15.70
2023-02-09T18:49:23.855Z,17.38
2023-02-09T18:51:52.075Z,17.55
2023-02-09T18:54:20.030Z,17.70
2023-02-09T18:56:49.188Z,21.02
2023-02-09T18:59:17.638Z,16.85
2023-02-09T19:01:47.303Z,15.63
2023-02-09T19:04:15.448Z,18.17
2023-02-09T19:06:43.593Z,18.40
2023-02-09T19:09:13.193Z,17.88
2023-02-09T19:11:40.851Z,18.60
2023-02-09T19:14:28.274Z,17.92
2023-02-09T19:16:56.058Z,19.33
2023-02-09T19:19:23.825Z,20.10
2023-02-09T19:21:52.289Z,18.98
2023-02-09T19:24:20.316Z,18.48
2023-02-09T19:26:48.041Z,19.75
2023-02-09T19:29:17.329Z,23.88
2023-02-09T19:31:46.273Z,24.38
2023-02-09T19:34:14.533Z,20.77
2023-02-09T19:36:42.219Z,18.80
2023-02-09T19:39:11.514Z,19.38
2023-02-09T19:41:39.348Z,21.98
2023-02-09T19:44:07.523Z,24.88
2023-02-09T19:49:09.537Z,19.17
2023-02-09T19:51:37.795Z,18.30
2023-02-09T19:54:06.307Z,20.33
2023-02-09T19:56:34.149Z,20.40
2023-02-09T19:59:04.137Z,17.77
2023-02-09T20:01:32.407Z,19.67
2023-02-09T20:04:02.434Z,19.63
2023-02-09T20:06:31.098Z,22.67
2023-02-09T20:08:59.917Z,21.33
2023-02-09T20:11:27.970Z,21.02
2023-02-09T20:13:55.919Z,20.55
2023-02-09T20:16:25.814Z,19.15
2023-02-09T20:18:54.713Z,22.48
2023-02-09T20:21:26.235Z,23.52
2023-02-09T20:23:58.259Z,20.17
2023-02-09T20:29:19.399Z,20.98
2023-02-09T20:31:47.041Z,21.08
2023-02-09T20:34:15.884Z,21.05
2023-02-09T20:36:47.953Z,22.50
2023-02-09T20:39:17.648Z,22.63
2023-02-09T20:42:06.545Z,22.23
2023-02-09T20:44:53.361Z,24.27
2023-02-09T20:47:21.263Z,22.52
2023-02-09T20:49:51.226Z,24.23
2023-02-09T20:52:20.490Z,24.40
2023-02-09T20:54:48.214Z,23.40
2023-02-09T20:57:15.937Z,24.33
2023-02-09T20:59:44.500Z,21.45
2023-02-09T21:02:12.955Z,21.67
2023-02-09T21:04:40.957Z,23.92
2023-02-09T21:07:09.603Z,24.52
2023-02-09T21:09:41.799Z,24.95
2023-02-09T21:12:10.428Z,20.95
2023-02-09T21:14:42.139Z,21.77
2023-02-09T21:17:11.575Z,23.42
2023-02-09T21:19:39.627Z,22.55
2023-02-09T21:22:08.534Z,24.38
2023-02-09T21:24:39.191Z,21.70
2023-02-09T21:27:07.524Z,22.23
2023-02-09T21:29:35.859Z,22.80
2023-02-09T21:32:04.564Z,23.48
2023-02-09T21:34:34.448Z,30.73
2023-02-09T21:37:03.517Z,25.23
2023-02-09T21:39:31.472Z,21.98
2023-02-09T21:42:18.224Z,28.40
2023-02-09T21:44:45.843Z,26.63
2023-02-09T21:47:13.536Z,24.02
2023-02-09T21:49:41.247Z,26.63
2023-02-09T21:52:09.714Z,24.90
2023-02-09T21:54:37.405Z,26.60
2023-02-09T21:57:07.515Z,29.38
2023-02-09T21:59:35.446Z,27.25
2023-02-09T22:02:03.244Z,27.45
2023-02-09T22:04:30.973Z,27.83
2023-02-09T22:06:58.667Z,26.05
2023-02-09T22:09:26.358Z,25.90
2023-02-09T22:11:54.613Z,27.52
2023-02-09T22:14:23.664Z,26.00
2023-02-09T22:16:51.418Z,29.27
2023-02-09T22:19:19.837Z,26.15
2023-02-09T22:21:47.545Z,29.60
2023-02-09T22:24:16.634Z,28.88
2023-02-09T22:26:46.878Z,30.02
2023-02-09T22:29:16.027Z,27.73
2023-02-09T22:31:45.453Z,25.95
2023-02-09T22:34:14.433Z,32.50
2023-02-09T22:36:43.169Z,29.45
2023-02-09T22:39:11.011Z,29.55
2023-02-09T22:41:39.394Z,27.75
2023-02-09T22:44:11.090Z,29.42
2023-02-09T22:49:13.034Z,30.27
2023-02-09T22:51:40.926Z,30.92
2023-02-09T22:54:10.881Z,33.33
2023-02-09T22:56:39.530Z,31.42
2023-02-09T22:59:08.332Z,31.35
2023-02-09T23:01:36.038Z,31.80
2023-02-09T23:04:03.711Z,36.75
2023-02-09T23:06:32.849Z,31.60
2023-02-09T23:09:02.331Z,36.22
2023-02-09T23:11:31.459Z,31.83
2023-02-09T23:14:09.192Z,36.05
2023-02-09T23:16:38.888Z,31.48
2023-02-09T23:19:10.908Z,32.92
2023-02-09T23:21:44.014Z,33.58
2023-02-09T23:24:12.747Z,32.08
2023-02-09T23:26:40.803Z,33.00
2023-02-09T23:29:11.429Z,34.88
2023-02-09T23:31:39.994Z,36.45
2023-02-09T23:34:09.423Z,37.13
2023-02-09T23:36:37.160Z,37.47
2023-02-09T23:39:07.694Z,35.42
2023-02-09T23:41:36.433Z,33.75
2023-02-09T23:44:04.479Z,43.45
2023-02-09T23:46:32.575Z,34.10
2023-02-09T23:49:01.108Z,33.05
2023-02-09T23:51:30.656Z,43.17
2023-02-09T23:53:59.983Z,34.63
2023-02-09T23:56:31.725Z,36.42
2023-02-09T23:59:01.515Z,34.67
